KBFM/BFM METAR and TAF weather

Enter ICAO airport designator
Station Type Date Time Source
KBFM METAR 2020/07/11 16:53 UTC NOAA

KBFM 111653Z 34011G16KT 10SM CLR 34/24 A2999 RMK AO2 SLP155 T03440239


Station Type Date Time Source
KBFM Decoded METAR 2020/07/11 16:53 UTC NOAA

MOBILE DOWNTOWN AIRPORT, AL, United States (KBFM) 30-38N 88-04W 20M
Jul 11, 2020 - 12:53 PM EDT / 2020.07.11 1653 UTC
Wind: from the NNW (340 degrees) at 13 MPH (11 KT) gusting to 18 MPH (16 KT):0
Visibility: 10 mile(s):0
Sky conditions: clear
Temperature: 93.9 F (34.4 C)
Heat index: 105.4 F (40.8 C):1
Dew Point: 75.0 F (23.9 C)
Relative Humidity: 54%
Pressure (altimeter): 29.99 in. Hg (1015 hPa)
ob: KBFM 111653Z 34011G16KT 10SM CLR 34/24 A2999 RMK AO2 SLP155 T03440239
cycle: 17

Station Type Date Time Source
KBFM TAF 2020/07/11 12:22 UTC NOAA

TAF KBFM 111120Z 1112/1212 31005KT P6SM FEW040 SCT250
FM111500 34007KT P6SM SCT040 SCT100
FM120000 35005KT P6SM FEW050 SCT250

Example: see airport list